sensor_id;sensor_type;location;lat;lon;timestamp;pressure;altitude;pressure_sealevel;temperature;humidity
55068;BME280;40965;52.368;9.712;2022-10-20T00:02:09;101712.69;;;5.30;100.00
55068;BME280;40965;52.368;9.712;2022-10-20T00:04:36;101709.06;;;5.25;100.00
55068;BME280;40965;52.368;9.712;2022-10-20T00:07:02;101705.50;;;5.21;100.00
55068;BME280;40965;52.368;9.712;2022-10-20T00:09:29;101708.84;;;5.17;100.00
55068;BME280;40965;52.368;9.712;2022-10-20T00:11:55;101694.88;;;5.13;100.00
55068;BME280;40965;52.368;9.712;2022-10-20T00:14:22;101688.78;;;5.11;100.00
55068;BME280;40965;52.368;9.712;2022-10-20T00:16:48;101690.34;;;5.06;100.00
55068;BME280;40965;52.368;9.712;2022-10-20T00:19:15;101695.47;;;5.03;100.00
55068;BME280;40965;52.368;9.712;2022-10-20T00:21:41;101681.63;;;5.04;100.00
55068;BME280;40965;52.368;9.712;2022-10-20T00:24:08;101672.97;;;5.04;100.00
55068;BME280;40965;52.368;9.712;2022-10-20T00:26:34;101665.94;;;5.00;100.00
55068;BME280;40965;52.368;9.712;2022-10-20T00:29:02;101662.41;;;4.97;100.00
55068;BME280;40965;52.368;9.712;2022-10-20T00:31:29;101659.75;;;4.96;100.00
55068;BME280;40965;52.368;9.712;2022-10-20T00:33:56;101659.72;;;4.94;100.00
55068;BME280;40965;52.368;9.712;2022-10-20T00:36:22;101657.13;;;4.94;100.00
55068;BME280;40965;52.368;9.712;2022-10-20T00:38:50;101651.03;;;4.94;100.00
55068;BME280;40965;52.368;9.712;2022-10-20T00:41:19;101655.31;;;4.92;100.00
55068;BME280;40965;52.368;9.712;2022-10-20T00:43:50;101647.56;;;4.93;100.00
55068;BME280;40965;52.368;9.712;2022-10-20T00:46:35;101649.16;;;4.88;100.00
55068;BME280;40965;52.368;9.712;2022-10-20T00:49:13;101643.88;;;4.85;100.00
55068;BME280;40965;52.368;9.712;2022-10-20T00:51:42;101641.28;;;4.85;100.00
55068;BME280;40965;52.368;9.712;2022-10-20T00:54:15;101635.06;;;4.80;100.00
55068;BME280;40965;52.368;9.712;2022-10-20T00:56:45;101643.59;;;4.76;100.00
55068;BME280;40965;52.368;9.712;2022-10-20T00:59:16;101647.75;;;4.71;100.00
55068;BME280;40965;52.368;9.712;2022-10-20T01:01:45;101644.19;;;4.67;100.00
55068;BME280;40965;52.368;9.712;2022-10-20T01:04:11;101635.66;;;4.71;100.00
55068;BME280;40965;52.368;9.712;2022-10-20T01:06:38;101629.50;;;4.68;100.00
55068;BME280;40965;52.368;9.712;2022-10-20T01:09:05;101625.91;;;4.64;100.00
55068;BME280;40965;52.368;9.712;2022-10-20T01:15:02;101616.97;;;4.54;100.00
55068;BME280;40965;52.368;9.712;2022-10-20T01:18:02;101607.41;;;4.52;100.00
55068;BME280;40965;52.368;9.712;2022-10-20T01:23:39;101604.53;;;4.42;100.00
55068;BME280;40965;52.368;9.712;2022-10-20T01:28:52;101607.97;;;4.43;100.00
55068;BME280;40965;52.368;9.712;2022-10-20T01:35:26;101598.34;;;4.39;100.00
55068;BME280;40965;52.368;9.712;2022-10-20T01:38:08;101592.97;;;4.33;100.00
55068;BME280;40965;52.368;9.712;2022-10-20T01:40:49;101599.09;;;4.35;100.00
55068;BME280;40965;52.368;9.712;2022-10-20T01:43:20;101593.03;;;4.34;100.00
55068;BME280;40965;52.368;9.712;2022-10-20T01:45:50;101585.97;;;4.30;100.00
55068;BME280;40965;52.368;9.712;2022-10-20T01:48:20;101584.22;;;4.29;100.00
55068;BME280;40965;52.368;9.712;2022-10-20T01:50:49;101578.19;;;4.30;100.00
55068;BME280;40965;52.368;9.712;2022-10-20T01:53:16;101585.16;;;4.31;100.00
55068;BME280;40965;52.368;9.712;2022-10-20T01:55:42;101581.69;;;4.30;100.00
55068;BME280;40965;52.368;9.712;2022-10-20T02:00:58;101570.38;;;4.28;100.00
55068;BME280;40965;52.368;9.712;2022-10-20T02:03:55;101562.50;;;4.25;100.00
55068;BME280;40965;52.368;9.712;2022-10-20T02:06:30;101561.53;;;4.22;100.00
55068;BME280;40965;52.368;9.712;2022-10-20T02:09:03;101562.34;;;4.21;100.00
55068;BME280;40965;52.368;9.712;2022-10-20T02:14:06;101560.38;;;4.12;100.00
55068;BME280;40965;52.368;9.712;2022-10-20T02:16:39;101561.97;;;4.08;100.00
55068;BME280;40965;52.368;9.712;2022-10-20T02:19:13;101557.47;;;4.03;100.00
55068;BME280;40965;52.368;9.712;2022-10-20T02:21:43;101550.53;;;4.02;100.00
55068;BME280;40965;52.368;9.712;2022-10-20T02:24:13;101541.00;;;4.01;100.00
55068;BME280;40965;52.368;9.712;2022-10-20T02:26:42;101543.53;;;3.99;100.00
55068;BME280;40965;52.368;9.712;2022-10-20T02:29:13;101547.81;;;3.98;100.00
55068;BME280;40965;52.368;9.712;2022-10-20T02:31:43;101542.69;;;4.00;100.00
55068;BME280;40965;52.368;9.712;2022-10-20T02:34:10;101525.41;;;3.99;100.00
55068;BME280;40965;52.368;9.712;2022-10-20T02:36:40;101522.81;;;3.99;100.00
55068;BME280;40965;52.368;9.712;2022-10-20T02:39:08;101521.13;;;4.01;100.00
55068;BME280;40965;52.368;9.712;2022-10-20T02:41:35;101513.47;;;4.04;100.00
55068;BME280;40965;52.368;9.712;2022-10-20T02:44:03;101526.44;;;4.04;100.00
55068;BME280;40965;52.368;9.712;2022-10-20T02:46:29;101511.75;;;4.05;100.00
55068;BME280;40965;52.368;9.712;2022-10-20T02:48:56;101503.94;;;4.03;100.00
55068;BME280;40965;52.368;9.712;2022-10-20T02:51:22;101504.00;;;4.05;100.00
55068;BME280;40965;52.368;9.712;2022-10-20T02:53:49;101503.16;;;4.06;100.00
55068;BME280;40965;52.368;9.712;2022-10-20T02:56:15;101497.09;;;4.05;100.00
55068;BME280;40965;52.368;9.712;2022-10-20T02:58:42;101495.44;;;4.07;100.00
55068;BME280;40965;52.368;9.712;2022-10-20T03:01:08;101491.22;;;4.11;100.00
55068;BME280;40965;52.368;9.712;2022-10-20T03:03:35;101494.88;;;4.18;100.00
55068;BME280;40965;52.368;9.712;2022-10-20T03:06:09;101489.53;;;4.13;100.00
55068;BME280;40965;52.368;9.712;2022-10-20T03:08:37;101491.19;;;4.09;100.00
55068;BME280;40965;52.368;9.712;2022-10-20T03:11:04;101493.09;;;4.15;100.00
55068;BME280;40965;52.368;9.712;2022-10-20T03:13:30;101498.25;;;4.15;100.00
55068;BME280;40965;52.368;9.712;2022-10-20T03:15:57;101489.66;;;4.16;100.00
55068;BME280;40965;52.368;9.712;2022-10-20T03:18:23;101492.28;;;4.18;100.00
55068;BME280;40965;52.368;9.712;2022-10-20T03:20:51;101487.84;;;4.13;100.00
55068;BME280;40965;52.368;9.712;2022-10-20T03:23:18;101478.25;;;4.09;100.00
55068;BME280;40965;52.368;9.712;2022-10-20T03:25:45;101476.44;;;4.07;100.00
55068;BME280;40965;52.368;9.712;2022-10-20T03:28:11;101467.94;;;4.12;100.00
55068;BME280;40965;52.368;9.712;2022-10-20T03:30:38;101459.44;;;4.17;100.00
55068;BME280;40965;52.368;9.712;2022-10-20T03:33:05;101462.03;;;4.17;100.00
55068;BME280;40965;52.368;9.712;2022-10-20T03:35:32;101475.69;;;4.11;100.00
55068;BME280;40965;52.368;9.712;2022-10-20T03:37:58;101473.19;;;4.14;100.00
55068;BME280;40965;52.368;9.712;2022-10-20T03:40:24;101469.69;;;4.12;100.00
55068;BME280;40965;52.368;9.712;2022-10-20T03:42:51;101462.63;;;4.08;100.00
55068;BME280;40965;52.368;9.712;2022-10-20T03:45:17;101457.31;;;4.03;100.00
55068;BME280;40965;52.368;9.712;2022-10-20T03:47:44;101466.78;;;4.03;100.00
55068;BME280;40965;52.368;9.712;2022-10-20T03:50:10;101472.75;;;4.00;100.00
55068;BME280;40965;52.368;9.712;2022-10-20T03:52:37;101461.44;;;3.96;100.00
55068;BME280;40965;52.368;9.712;2022-10-20T03:55:04;101457.06;;;3.95;100.00
55068;BME280;40965;52.368;9.712;2022-10-20T03:57:31;101456.94;;;3.92;100.00
55068;BME280;40965;52.368;9.712;2022-10-20T03:59:57;101448.41;;;3.95;100.00
55068;BME280;40965;52.368;9.712;2022-10-20T04:02:39;101450.16;;;3.96;100.00
55068;BME280;40965;52.368;9.712;2022-10-20T04:05:09;101447.69;;;3.99;100.00
55068;BME280;40965;52.368;9.712;2022-10-20T04:07:41;101447.69;;;3.99;100.00
55068;BME280;40965;52.368;9.712;2022-10-20T04:10:08;101444.25;;;4.00;100.00
55068;BME280;40965;52.368;9.712;2022-10-20T04:12:36;101430.34;;;3.96;100.00
55068;BME280;40965;52.368;9.712;2022-10-20T04:15:03;101424.22;;;3.94;100.00
55068;BME280;40965;52.368;9.712;2022-10-20T04:17:31;101421.78;;;3.99;100.00
55068;BME280;40965;52.368;9.712;2022-10-20T04:19:57;101422.72;;;4.03;100.00
55068;BME280;40965;52.368;9.712;2022-10-20T04:22:24;101410.72;;;4.05;100.00
55068;BME280;40965;52.368;9.712;2022-10-20T04:24:50;101407.41;;;4.10;100.00
55068;BME280;40965;52.368;9.712;2022-10-20T04:27:17;101400.59;;;4.12;100.00
55068;BME280;40965;52.368;9.712;2022-10-20T04:29:45;101397.91;;;4.09;100.00
55068;BME280;40965;52.368;9.712;2022-10-20T04:32:12;101392.66;;;4.08;100.00
55068;BME280;40965;52.368;9.712;2022-10-20T04:34:38;101383.16;;;4.07;100.00
55068;BME280;40965;52.368;9.712;2022-10-20T04:37:05;101382.97;;;4.01;100.00
55068;BME280;40965;52.368;9.712;2022-10-20T04:39:31;101375.81;;;3.93;100.00
55068;BME280;40965;52.368;9.712;2022-10-20T04:41:58;101373.13;;;3.89;100.00
55068;BME280;40965;52.368;9.712;2022-10-20T04:44:25;101374.03;;;3.91;100.00
55068;BME280;40965;52.368;9.712;2022-10-20T04:46:53;101376.63;;;3.91;100.00
55068;BME280;40965;52.368;9.712;2022-10-20T04:49:20;101369.00;;;3.95;100.00
55068;BME280;40965;52.368;9.712;2022-10-20T04:51:46;101370.13;;;4.05;100.00
55068;BME280;40965;52.368;9.712;2022-10-20T04:54:13;101374.44;;;4.05;100.00
55068;BME280;40965;52.368;9.712;2022-10-20T04:56:39;101374.28;;;4.00;100.00
55068;BME280;40965;52.368;9.712;2022-10-20T04:59:06;101364.59;;;3.93;100.00
55068;BME280;40965;52.368;9.712;2022-10-20T05:01:32;101363.66;;;3.91;100.00
55068;BME280;40965;52.368;9.712;2022-10-20T05:03:59;101354.97;;;3.89;100.00
55068;BME280;40965;52.368;9.712;2022-10-20T05:06:28;101348.75;;;3.82;100.00
55068;BME280;40965;52.368;9.712;2022-10-20T05:09:01;101345.25;;;3.81;100.00
55068;BME280;40965;52.368;9.712;2022-10-20T05:11:30;101337.44;;;3.80;100.00
55068;BME280;40965;52.368;9.712;2022-10-20T05:13:58;101345.13;;;3.77;100.00
55068;BME280;40965;52.368;9.712;2022-10-20T05:16:25;101340.00;;;3.78;100.00
55068;BME280;40965;52.368;9.712;2022-10-20T05:18:52;101341.69;;;3.78;100.00
55068;BME280;40965;52.368;9.712;2022-10-20T05:21:23;101337.31;;;3.75;100.00
55068;BME280;40965;52.368;9.712;2022-10-20T05:24:15;101331.19;;;3.72;100.00
55068;BME280;40965;52.368;9.712;2022-10-20T05:26:42;101333.66;;;3.69;100.00
55068;BME280;40965;52.368;9.712;2022-10-20T05:29:10;101339.66;;;3.68;100.00
55068;BME280;40965;52.368;9.712;2022-10-20T05:31:42;101335.34;;;3.67;100.00
55068;BME280;40965;52.368;9.712;2022-10-20T05:34:09;101333.59;;;3.67;100.00
55068;BME280;40965;52.368;9.712;2022-10-20T05:36:36;101325.22;;;3.74;100.00
55068;BME280;40965;52.368;9.712;2022-10-20T05:39:03;101331.22;;;3.73;100.00
55068;BME280;40965;52.368;9.712;2022-10-20T05:41:31;101324.34;;;3.75;100.00
55068;BME280;40965;52.368;9.712;2022-10-20T05:44:00;101326.94;;;3.75;100.00
55068;BME280;40965;52.368;9.712;2022-10-20T05:46:31;101322.69;;;3.77;100.00
55068;BME280;40965;52.368;9.712;2022-10-20T05:49:00;101305.59;;;3.83;100.00
55068;BME280;40965;52.368;9.712;2022-10-20T05:51:33;101310.16;;;3.91;100.00
55068;BME280;40965;52.368;9.712;2022-10-20T05:54:02;101316.41;;;3.98;100.00
55068;BME280;40965;52.368;9.712;2022-10-20T05:56:29;101321.00;;;4.08;100.00
55068;BME280;40965;52.368;9.712;2022-10-20T05:58:57;101329.75;;;4.12;100.00
55068;BME280;40965;52.368;9.712;2022-10-20T06:01:27;101325.38;;;4.09;100.00
55068;BME280;40965;52.368;9.712;2022-10-20T06:04:05;101327.88;;;4.08;100.00
55068;BME280;40965;52.368;9.712;2022-10-20T06:06:32;101320.38;;;4.17;100.00
55068;BME280;40965;52.368;9.712;2022-10-20T06:09:00;101318.78;;;4.22;100.00
55068;BME280;40965;52.368;9.712;2022-10-20T06:11:29;101312.72;;;4.22;100.00
55068;BME280;40965;52.368;9.712;2022-10-20T06:13:55;101304.91;;;4.20;100.00
55068;BME280;40965;52.368;9.712;2022-10-20T06:16:24;101306.75;;;4.24;100.00
55068;BME280;40965;52.368;9.712;2022-10-20T06:18:52;101304.31;;;4.29;100.00
55068;BME280;40965;52.368;9.712;2022-10-20T06:21:29;101320.03;;;4.37;100.00
55068;BME280;40965;52.368;9.712;2022-10-20T06:23:58;101312.53;;;4.46;100.00
55068;BME280;40965;52.368;9.712;2022-10-20T06:26:26;101309.97;;;4.47;100.00
55068;BME280;40965;52.368;9.712;2022-10-20T06:28:56;101317.00;;;4.52;100.00
55068;BME280;40965;52.368;9.712;2022-10-20T06:31:28;101311.84;;;4.53;100.00
55068;BME280;40965;52.368;9.712;2022-10-20T06:33:57;101315.38;;;4.55;100.00
55068;BME280;40965;52.368;9.712;2022-10-20T06:36:24;101320.63;;;4.58;100.00
55068;BME280;40965;52.368;9.712;2022-10-20T06:38:53;101314.63;;;4.61;100.00
55068;BME280;40965;52.368;9.712;2022-10-20T06:41:20;101320.78;;;4.64;100.00
55068;BME280;40965;52.368;9.712;2022-10-20T06:43:47;101318.31;;;4.69;100.00
55068;BME280;40965;52.368;9.712;2022-10-20T06:46:16;101310.66;;;4.74;100.00
55068;BME280;40965;52.368;9.712;2022-10-20T06:48:44;101309.84;;;4.76;100.00
55068;BME280;40965;52.368;9.712;2022-10-20T06:51:13;101297.88;;;4.82;100.00
55068;BME280;40965;52.368;9.712;2022-10-20T06:53:41;101303.13;;;4.85;100.00
55068;BME280;40965;52.368;9.712;2022-10-20T06:56:14;101302.31;;;4.86;100.00
55068;BME280;40965;52.368;9.712;2022-10-20T06:58:43;101310.22;;;4.90;100.00
55068;BME280;40965;52.368;9.712;2022-10-20T07:01:13;101297.25;;;4.90;100.00
55068;BME280;40965;52.368;9.712;2022-10-20T07:03:43;101293.03;;;4.95;100.00
55068;BME280;40965;52.368;9.712;2022-10-20T07:06:16;101279.25;;;4.98;100.00
55068;BME280;40965;52.368;9.712;2022-10-20T07:08:44;101288.84;;;5.01;100.00
55068;BME280;40965;52.368;9.712;2022-10-20T07:11:17;101281.13;;;5.04;100.00
55068;BME280;40965;52.368;9.712;2022-10-20T07:13:45;101282.06;;;5.07;100.00
55068;BME280;40965;52.368;9.712;2022-10-20T07:16:18;101276.09;;;5.10;100.00
55068;BME280;40965;52.368;9.712;2022-10-20T07:18:46;101268.31;;;5.11;100.00
55068;BME280;40965;52.368;9.712;2022-10-20T07:21:15;101255.44;;;5.16;100.00
55068;BME280;40965;52.368;9.712;2022-10-20T07:23:43;101255.50;;;5.18;100.00
55068;BME280;40965;52.368;9.712;2022-10-20T07:26:17;101257.41;;;5.26;100.00
55068;BME280;40965;52.368;9.712;2022-10-20T07:28:48;101256.63;;;5.30;100.00
55068;BME280;40965;52.368;9.712;2022-10-20T07:31:44;101251.72;;;5.43;100.00
55068;BME280;40965;52.368;9.712;2022-10-20T07:34:13;101247.50;;;5.48;100.00
55068;BME280;40965;52.368;9.712;2022-10-20T07:36:42;101242.44;;;5.54;100.00
55068;BME280;40965;52.368;9.712;2022-10-20T07:39:11;101241.75;;;5.63;100.00
55068;BME280;40965;52.368;9.712;2022-10-20T07:41:39;101248.88;;;5.73;100.00
55068;BME280;40965;52.368;9.712;2022-10-20T07:44:08;101243.88;;;5.83;100.00
55068;BME280;40965;52.368;9.712;2022-10-20T07:46:34;101238.91;;;5.93;100.00
55068;BME280;40965;52.368;9.712;2022-10-20T07:49:01;101249.50;;;6.01;100.00
55068;BME280;40965;52.368;9.712;2022-10-20T07:51:28;101243.56;;;6.10;100.00
55068;BME280;40965;52.368;9.712;2022-10-20T07:54:05;101235.88;;;6.16;100.00
55068;BME280;40965;52.368;9.712;2022-10-20T07:56:36;101230.81;;;6.22;100.00
55068;BME280;40965;52.368;9.712;2022-10-20T07:59:05;101231.78;;;6.27;100.00
55068;BME280;40965;52.368;9.712;2022-10-20T08:01:33;101233.56;;;6.30;100.00
55068;BME280;40965;52.368;9.712;2022-10-20T08:04:00;101226.78;;;6.40;100.00
55068;BME280;40965;52.368;9.712;2022-10-20T08:06:27;101215.66;;;6.49;99.32
55068;BME280;40965;52.368;9.712;2022-10-20T08:08:53;101224.53;;;6.60;99.38
55068;BME280;40965;52.368;9.712;2022-10-20T08:11:20;101221.28;;;6.73;97.65
55068;BME280;40965;52.368;9.712;2022-10-20T08:13:47;101223.97;;;6.78;97.33
55068;BME280;40965;52.368;9.712;2022-10-20T08:16:14;101232.81;;;6.91;97.01
55068;BME280;40965;52.368;9.712;2022-10-20T08:18:41;101221.66;;;6.98;95.33
55068;BME280;40965;52.368;9.712;2022-10-20T08:21:13;101220.84;;;7.04;94.46
55068;BME280;40965;52.368;9.712;2022-10-20T08:23:44;101219.25;;;7.10;95.04
55068;BME280;40965;52.368;9.712;2022-10-20T08:26:17;101217.59;;;7.17;94.20
55068;BME280;40965;52.368;9.712;2022-10-20T08:28:45;101219.38;;;7.20;94.28
55068;BME280;40965;52.368;9.712;2022-10-20T08:31:12;101212.50;;;7.25;94.27
55068;BME280;40965;52.368;9.712;2022-10-20T08:33:39;101216.91;;;7.31;94.11
55068;BME280;40965;52.368;9.712;2022-10-20T08:36:08;101215.22;;;7.34;93.59
55068;BME280;40965;52.368;9.712;2022-10-20T08:38:37;101204.75;;;7.31;92.64
55068;BME280;40965;52.368;9.712;2022-10-20T08:41:06;101199.53;;;7.29;93.21
55068;BME280;40965;52.368;9.712;2022-10-20T08:43:41;101205.63;;;7.32;93.30
55068;BME280;40965;52.368;9.712;2022-10-20T08:46:15;101197.88;;;7.36;92.65
55068;BME280;40965;52.368;9.712;2022-10-20T08:48:45;101184.94;;;7.42;92.89
55068;BME280;40965;52.368;9.712;2022-10-20T08:51:17;101182.44;;;7.50;92.69
55068;BME280;40965;52.368;9.712;2022-10-20T08:53:51;101166.91;;;7.59;92.23
55068;BME280;40965;52.368;9.712;2022-10-20T08:56:25;101179.19;;;7.71;92.07
55068;BME280;40965;52.368;9.712;2022-10-20T08:58:54;101186.25;;;7.83;90.67
55068;BME280;40965;52.368;9.712;2022-10-20T09:01:23;101181.13;;;7.89;90.25
55068;BME280;40965;52.368;9.712;2022-10-20T09:03:54;101175.16;;;7.98;89.70
55068;BME280;40965;52.368;9.712;2022-10-20T09:06:22;101181.38;;;8.14;89.54
55068;BME280;40965;52.368;9.712;2022-10-20T09:08:50;101180.53;;;8.17;88.74
55068;BME280;40965;52.368;9.712;2022-10-20T09:11:31;101174.47;;;8.22;88.93
55068;BME280;40965;52.368;9.712;2022-10-20T09:14:02;101168.47;;;8.31;88.16
55068;BME280;40965;52.368;9.712;2022-10-20T09:16:31;101173.78;;;8.42;88.04
55068;BME280;40965;52.368;9.712;2022-10-20T09:19:03;101162.59;;;8.54;87.39
55068;BME280;40965;52.368;9.712;2022-10-20T09:21:33;101166.22;;;8.70;87.13
55068;BME280;40965;52.368;9.712;2022-10-20T09:24:04;101163.66;;;8.79;85.82
55068;BME280;40965;52.368;9.712;2022-10-20T09:26:43;101159.34;;;8.86;84.64
55068;BME280;40965;52.368;9.712;2022-10-20T09:29:15;101160.25;;;8.89;84.89
55068;BME280;40965;52.368;9.712;2022-10-20T09:31:50;101159.41;;;8.98;84.53
55068;BME280;40965;52.368;9.712;2022-10-20T09:34:19;101162.97;;;9.08;83.19
55068;BME280;40965;52.368;9.712;2022-10-20T09:36:46;101156.03;;;9.13;83.70
55068;BME280;40965;52.368;9.712;2022-10-20T09:39:27;101147.34;;;9.16;83.69
55068;BME280;40965;52.368;9.712;2022-10-20T09:42:01;101150.84;;;9.25;83.37
55068;BME280;40965;52.368;9.712;2022-10-20T09:44:32;101149.16;;;9.35;83.14
55068;BME280;40965;52.368;9.712;2022-10-20T09:47:03;101150.94;;;9.50;83.67
55068;BME280;40965;52.368;9.712;2022-10-20T09:49:32;101140.53;;;9.63;82.04
55068;BME280;40965;52.368;9.712;2022-10-20T09:52:02;101133.59;;;9.72;81.29
55068;BME280;40965;52.368;9.712;2022-10-20T09:54:29;101136.22;;;9.79;80.73
55068;BME280;40965;52.368;9.712;2022-10-20T09:57:04;101124.03;;;9.88;80.64
55068;BME280;40965;52.368;9.712;2022-10-20T09:59:35;101107.50;;;10.02;79.34
55068;BME280;40965;52.368;9.712;2022-10-20T10:04:45;101106.63;;;10.41;78.44
55068;BME280;40965;52.368;9.712;2022-10-20T10:10:22;101104.00;;;10.68;76.42
55068;BME280;40965;52.368;9.712;2022-10-20T10:12:52;101105.69;;;10.81;75.83
55068;BME280;40965;52.368;9.712;2022-10-20T10:15:27;101095.19;;;10.93;75.33
55068;BME280;40965;52.368;9.712;2022-10-20T10:17:55;101089.91;;;11.03;74.99
55068;BME280;40965;52.368;9.712;2022-10-20T10:20:30;101086.38;;;11.12;73.81
55068;BME280;40965;52.368;9.712;2022-10-20T10:23:29;101074.16;;;11.12;73.73
55068;BME280;40965;52.368;9.712;2022-10-20T10:25:58;101072.38;;;11.14;74.66
55068;BME280;40965;52.368;9.712;2022-10-20T10:28:37;101068.88;;;11.23;74.08
55068;BME280;40965;52.368;9.712;2022-10-20T10:31:24;101068.00;;;11.22;73.36
55068;BME280;40965;52.368;9.712;2022-10-20T10:34:04;101058.41;;;11.21;74.05
55068;BME280;40965;52.368;9.712;2022-10-20T10:36:43;101063.59;;;11.28;74.27
55068;BME280;40965;52.368;9.712;2022-10-20T10:39:13;101059.19;;;11.31;73.28
55068;BME280;40965;52.368;9.712;2022-10-20T10:44:24;101039.09;;;11.39;72.64
55068;BME280;40965;52.368;9.712;2022-10-20T10:47:35;101033.81;;;11.38;72.82
55068;BME280;40965;52.368;9.712;2022-10-20T10:50:47;101020.69;;;11.44;72.47
55068;BME280;40965;52.368;9.712;2022-10-20T10:53:42;101016.28;;;11.49;72.44
55068;BME280;40965;52.368;9.712;2022-10-20T10:56:26;101020.59;;;11.58;72.62
55068;BME280;40965;52.368;9.712;2022-10-20T10:59:25;101028.34;;;11.75;71.34
55068;BME280;40965;52.368;9.712;2022-10-20T11:10:40;100987.94;;;12.01;69.74
55068;BME280;40965;52.368;9.712;2022-10-20T11:22:19;100988.75;;;12.06;69.45
55068;BME280;40965;52.368;9.712;2022-10-20T11:25:06;100986.16;;;12.01;70.13
55068;BME280;40965;52.368;9.712;2022-10-20T11:27:39;100972.09;;;12.10;70.26
55068;BME280;40965;52.368;9.712;2022-10-20T11:30:15;100970.34;;;12.09;70.11
55068;BME280;40965;52.368;9.712;2022-10-20T11:32:50;100963.31;;;12.13;70.10
55068;BME280;40965;52.368;9.712;2022-10-20T11:35:43;100975.63;;;12.04;70.18
55068;BME280;40965;52.368;9.712;2022-10-20T11:38:24;100991.31;;;12.12;70.57
55068;BME280;40965;52.368;9.712;2022-10-20T11:43:58;100971.00;;;12.31;69.89
55068;BME280;40965;52.368;9.712;2022-10-20T11:46:37;100964.88;;;12.31;69.67
55068;BME280;40965;52.368;9.712;2022-10-20T11:49:07;100958.63;;;12.39;69.88
55068;BME280;40965;52.368;9.712;2022-10-20T11:52:14;100939.28;;;12.48;69.72
55068;BME280;40965;52.368;9.712;2022-10-20T11:58:09;100917.16;;;12.68;69.64
55068;BME280;40965;52.368;9.712;2022-10-20T12:00:54;100925.03;;;12.68;69.84
55068;BME280;40965;52.368;9.712;2022-10-20T12:03:48;100920.75;;;12.59;70.49
55068;BME280;40965;52.368;9.712;2022-10-20T12:06:29;100924.25;;;12.61;70.91
55068;BME280;40965;52.368;9.712;2022-10-20T12:12:24;100920.69;;;12.65;71.14
55068;BME280;40965;52.368;9.712;2022-10-20T12:14:58;100910.88;;;12.78;71.05
55068;BME280;40965;52.368;9.712;2022-10-20T12:17:33;100907.13;;;12.96;69.89
55068;BME280;40965;52.368;9.712;2022-10-20T12:22:47;100919.16;;;13.11;69.87
55068;BME280;40965;52.368;9.712;2022-10-20T12:25:34;100912.88;;;13.21;69.49
55068;BME280;40965;52.368;9.712;2022-10-20T12:30:58;100904.50;;;13.54;68.83
55068;BME280;40965;52.368;9.712;2022-10-20T12:33:59;100898.38;;;13.53;68.17
55068;BME280;40965;52.368;9.712;2022-10-20T12:36:34;100897.34;;;13.61;68.74
55068;BME280;40965;52.368;9.712;2022-10-20T12:39:15;100888.41;;;13.71;68.71
55068;BME280;40965;52.368;9.712;2022-10-20T12:41:54;100885.75;;;13.74;68.59
55068;BME280;40965;52.368;9.712;2022-10-20T12:44:27;100886.53;;;13.78;68.66
55068;BME280;40965;52.368;9.712;2022-10-20T12:47:02;100889.94;;;13.83;68.86
55068;BME280;40965;52.368;9.712;2022-10-20T12:49:44;100879.31;;;13.89;68.66
55068;BME280;40965;52.368;9.712;2022-10-20T12:52:26;100884.41;;;13.97;68.88
55068;BME280;40965;52.368;9.712;2022-10-20T12:55:02;100887.91;;;13.99;68.79
55068;BME280;40965;52.368;9.712;2022-10-20T12:57:36;100880.91;;;13.98;69.03
55068;BME280;40965;52.368;9.712;2022-10-20T13:02:54;100887.63;;;14.13;69.26
55068;BME280;40965;52.368;9.712;2022-10-20T13:05:39;100893.75;;;14.12;68.91
55068;BME280;40965;52.368;9.712;2022-10-20T13:08:18;100885.06;;;14.10;68.78
55068;BME280;40965;52.368;9.712;2022-10-20T13:10:49;100884.25;;;14.06;69.36
55068;BME280;40965;52.368;9.712;2022-10-20T13:21:00;100852.00;;;13.95;70.64
55068;BME280;40965;52.368;9.712;2022-10-20T13:23:36;100843.16;;;13.97;70.40
55068;BME280;40965;52.368;9.712;2022-10-20T13:26:15;100852.13;;;13.87;70.97
55068;BME280;40965;52.368;9.712;2022-10-20T13:28:49;100846.94;;;13.84;71.25
55068;BME280;40965;52.368;9.712;2022-10-20T13:40:16;100855.97;;;13.70;71.74
55068;BME280;40965;52.368;9.712;2022-10-20T13:49:23;100850.75;;;13.67;71.87
55068;BME280;40965;52.368;9.712;2022-10-20T13:52:04;100843.88;;;13.60;71.91
55068;BME280;40965;52.368;9.712;2022-10-20T13:54:41;100844.84;;;13.54;72.25
55068;BME280;40965;52.368;9.712;2022-10-20T13:57:45;100848.59;;;13.41;72.63
55068;BME280;40965;52.368;9.712;2022-10-20T14:05:37;100822.53;;;13.26;73.69
55068;BME280;40965;52.368;9.712;2022-10-20T14:08:13;100824.34;;;13.23;73.75
55068;BME280;40965;52.368;9.712;2022-10-20T14:10:52;100815.63;;;13.20;74.11
55068;BME280;40965;52.368;9.712;2022-10-20T14:13:24;100805.19;;;13.17;74.06
55068;BME280;40965;52.368;9.712;2022-10-20T14:15:54;100801.75;;;13.13;74.30
55068;BME280;40965;52.368;9.712;2022-10-20T14:18:26;100803.50;;;13.11;74.57
55068;BME280;40965;52.368;9.712;2022-10-20T14:21:02;100796.50;;;13.10;74.84
55068;BME280;40965;52.368;9.712;2022-10-20T14:23:39;100801.81;;;13.08;74.66
55068;BME280;40965;52.368;9.712;2022-10-20T14:26:12;100804.50;;;13.05;74.42
55068;BME280;40965;52.368;9.712;2022-10-20T14:28:40;100811.56;;;13.02;73.73
55068;BME280;40965;52.368;9.712;2022-10-20T14:31:10;100801.09;;;12.99;74.28
55068;BME280;40965;52.368;9.712;2022-10-20T14:33:43;100795.84;;;12.99;74.00
55068;BME280;40965;52.368;9.712;2022-10-20T14:36:28;100817.75;;;12.98;73.31
55068;BME280;40965;52.368;9.712;2022-10-20T14:38:58;100828.34;;;12.95;73.50
55068;BME280;40965;52.368;9.712;2022-10-20T14:41:28;100826.63;;;12.90;73.67
55068;BME280;40965;52.368;9.712;2022-10-20T14:43:58;100831.09;;;12.85;73.59
55068;BME280;40965;52.368;9.712;2022-10-20T14:46:35;100826.75;;;12.81;73.87